createdAt,value
2018-04-12T00:02:17.365Z,57.45
2018-04-12T00:04:43.298Z,59.53
2018-04-12T00:07:09.246Z,58.96
2018-04-12T00:09:35.180Z,59.11
2018-04-12T00:12:01.148Z,60.11
2018-04-12T00:14:27.121Z,61.07
2018-04-12T00:16:53.060Z,61.29
2018-04-12T00:19:18.999Z,62.82
2018-04-12T00:21:44.943Z,59.83
2018-04-12T00:24:10.883Z,61.75
2018-04-12T00:26:36.861Z,62.84
2018-04-12T00:29:02.807Z,60.83
2018-04-12T00:31:28.767Z,62.21
2018-04-12T00:33:54.703Z,61.56
2018-04-12T00:36:20.693Z,60.14
2018-04-12T00:38:46.644Z,61.56
2018-04-12T00:41:12.585Z,60.35
2018-04-12T00:43:38.554Z,61.61
2018-04-12T00:46:04.493Z,59.31
2018-04-12T00:48:30.486Z,59.61
2018-04-12T00:50:56.431Z,61.78
2018-04-12T00:53:22.368Z,61.51
2018-04-12T00:55:48.314Z,60.20
2018-04-12T00:58:14.262Z,61.40
2018-04-12T01:00:40.236Z,60.63
2018-04-12T01:03:06.208Z,60.79
2018-04-12T01:05:32.177Z,59.41
2018-04-12T01:07:58.127Z,62.83
2018-04-12T01:10:24.116Z,61.51
2018-04-12T01:12:50.077Z,60.04
2018-04-12T01:15:16.046Z,60.85
2018-04-12T01:17:41.977Z,63.28
2018-04-12T01:20:08.264Z,63.79
2018-04-12T01:22:34.210Z,62.93
2018-04-12T01:25:00.135Z,61.48
2018-04-12T01:27:26.096Z,61.56
2018-04-12T01:29:52.046Z,60.85
2018-04-12T01:32:17.992Z,61.36
2018-04-12T01:34:43.925Z,63.07
2018-04-12T01:37:09.886Z,63.57
2018-04-12T01:39:35.833Z,61.11
2018-04-12T01:42:01.771Z,60.63
2018-04-12T01:44:27.815Z,62.20
2018-04-12T01:46:53.757Z,63.09
2018-04-12T01:49:19.699Z,61.71
2018-04-12T01:51:45.620Z,61.61
2018-04-12T01:54:11.564Z,60.80
2018-04-12T01:56:37.515Z,62.94
2018-04-12T01:59:03.477Z,61.24
2018-04-12T02:01:29.426Z,64.01
2018-04-12T02:03:55.380Z,61.02
2018-04-12T02:06:21.334Z,60.93
2018-04-12T02:08:47.313Z,60.11
2018-04-12T02:11:13.279Z,60.95
2018-04-12T02:13:39.233Z,63.80
2018-04-12T02:16:05.161Z,63.16
2018-04-12T02:18:31.110Z,62.31
2018-04-12T02:20:57.100Z,61.04
2018-04-12T02:23:23.064Z,62.30
2018-04-12T02:25:49.014Z,62.40
2018-04-12T02:28:14.942Z,65.61
2018-04-12T02:30:40.896Z,65.73
2018-04-12T02:33:06.858Z,63.85
2018-04-12T02:35:32.803Z,63.06
2018-04-12T02:37:58.823Z,61.42
2018-04-12T02:40:24.850Z,62.51
2018-04-12T02:42:50.786Z,61.95
2018-04-12T02:45:16.741Z,62.71
2018-04-12T02:47:42.700Z,62.53
2018-04-12T02:50:08.676Z,60.24
2018-04-12T02:52:34.640Z,61.95
2018-04-12T02:55:00.610Z,63.53
2018-04-12T02:57:26.597Z,61.70
2018-04-12T02:59:52.540Z,62.08
2018-04-12T03:02:18.508Z,62.54
2018-04-12T03:04:44.461Z,61.64
2018-04-12T03:07:11.210Z,63.84
2018-04-12T03:09:37.170Z,64.21
2018-04-12T03:12:03.102Z,60.97
2018-04-12T03:14:29.107Z,61.16
2018-04-12T03:16:55.057Z,62.74
2018-04-12T03:19:21.015Z,62.46
2018-04-12T03:21:46.949Z,63.34
2018-04-12T03:24:12.933Z,60.87
2018-04-12T03:26:38.884Z,61.56
2018-04-12T03:29:04.840Z,60.52
2018-04-12T03:31:30.765Z,62.05
2018-04-12T03:33:56.701Z,60.55
2018-04-12T03:36:22.630Z,62.05
2018-04-12T03:38:48.561Z,62.04
2018-04-12T03:41:14.523Z,63.59
2018-04-12T03:43:40.488Z,63.29
2018-04-12T03:46:06.436Z,62.91
2018-04-12T03:48:32.526Z,63.06
2018-04-12T03:50:58.455Z,62.50
2018-04-12T03:53:24.416Z,61.99
2018-04-12T03:55:50.337Z,60.18
2018-04-12T03:58:16.323Z,61.12
2018-04-12T04:00:42.270Z,60.60
2018-04-12T04:03:08.233Z,60.94
2018-04-12T04:05:34.189Z,63.29
2018-04-12T04:08:00.172Z,61.60
2018-04-12T04:10:26.121Z,62.36
2018-04-12T04:12:52.052Z,61.32
2018-04-12T04:15:18.025Z,60.71
2018-04-12T04:17:43.957Z,62.56
2018-04-12T04:20:09.928Z,63.94
2018-04-12T04:22:35.880Z,63.42
2018-04-12T04:25:01.834Z,61.23
2018-04-12T04:27:27.818Z,62.05
2018-04-12T04:29:53.793Z,62.66
2018-04-12T04:32:19.774Z,61.91
2018-04-12T04:34:45.724Z,60.87
2018-04-12T04:37:11.659Z,61.02
2018-04-12T04:39:37.636Z,60.34
2018-04-12T04:42:03.594Z,60.52
2018-04-12T04:44:29.521Z,61.88
2018-04-12T04:46:55.474Z,59.85
2018-04-12T04:49:21.443Z,59.46
2018-04-12T04:51:47.389Z,59.65
2018-04-12T04:54:13.344Z,61.24
2018-04-12T04:56:39.341Z,60.73
2018-04-12T04:59:05.288Z,59.58
2018-04-12T05:01:31.284Z,58.93
2018-04-12T05:03:57.234Z,58.75
2018-04-12T05:06:23.187Z,59.02
2018-04-12T05:08:49.126Z,58.33
2018-04-12T05:11:15.093Z,57.82
2018-04-12T05:13:41.101Z,57.26
2018-04-12T05:16:07.070Z,57.58
2018-04-12T05:18:33.039Z,57.70
2018-04-12T05:20:59.014Z,57.91
2018-04-12T05:23:24.991Z,57.97
2018-04-12T05:25:50.937Z,57.29
2018-04-12T05:30:51.934Z,56.68
2018-04-12T05:33:17.899Z,56.57
2018-04-12T05:35:43.884Z,56.90
2018-04-12T05:38:09.845Z,57.32
2018-04-12T05:40:35.818Z,57.21
2018-04-12T05:43:01.793Z,56.84
2018-04-12T05:45:27.761Z,56.68
2018-04-12T05:47:53.728Z,56.59
2018-04-12T05:50:19.685Z,56.12
2018-04-12T05:52:45.633Z,56.04
2018-04-12T05:55:11.624Z,56.00
2018-04-12T05:57:37.620Z,55.90
2018-04-12T06:00:03.563Z,55.77
2018-04-12T06:02:29.504Z,55.49
2018-04-12T06:04:55.435Z,55.38
2018-04-12T06:07:21.454Z,55.25
2018-04-12T06:09:47.357Z,55.30
2018-04-12T06:12:13.307Z,55.23
2018-04-12T06:14:39.259Z,55.06
2018-04-12T06:17:05.191Z,55.40
2018-04-12T06:19:31.137Z,55.21
2018-04-12T06:21:57.077Z,55.16
2018-04-12T06:24:23.054Z,55.08
2018-04-12T06:26:49.001Z,55.05
2018-04-12T06:29:14.940Z,54.81
2018-04-12T06:31:40.874Z,54.71
2018-04-12T06:34:06.801Z,54.66
2018-04-12T06:36:32.749Z,54.76
2018-04-12T06:38:58.691Z,54.75
2018-04-12T06:41:24.638Z,54.66
2018-04-12T06:43:50.601Z,54.84
2018-04-12T06:46:16.561Z,54.79
2018-04-12T06:48:42.564Z,55.07
2018-04-12T06:51:08.531Z,54.93
2018-04-12T06:53:34.502Z,54.82
2018-04-12T06:56:00.457Z,54.63
2018-04-12T06:58:26.480Z,54.16
2018-04-12T07:00:52.469Z,54.40
2018-04-12T07:03:18.426Z,54.25
2018-04-12T07:05:44.377Z,54.19
2018-04-12T07:08:10.323Z,53.91
2018-04-12T07:10:36.285Z,53.90
2018-04-12T07:13:02.242Z,53.26
2018-04-12T07:15:28.189Z,53.29
2018-04-12T07:17:54.121Z,53.41
2018-04-12T07:20:20.044Z,53.31
2018-04-12T07:22:46.026Z,53.31
2018-04-12T07:25:11.984Z,53.52
2018-04-12T07:27:37.913Z,53.62
2018-04-12T07:30:03.837Z,53.95
2018-04-12T07:32:29.796Z,53.99
2018-04-12T07:34:55.769Z,53.81
2018-04-12T07:37:21.721Z,53.76
2018-04-12T07:39:47.677Z,53.69
2018-04-12T07:42:13.677Z,53.86
2018-04-12T07:44:39.721Z,53.56
2018-04-12T07:47:05.686Z,53.64
2018-04-12T07:49:31.676Z,53.37
2018-04-12T07:51:57.644Z,53.22
2018-04-12T07:54:23.593Z,53.31
2018-04-12T07:56:49.543Z,52.95
2018-04-12T07:59:15.502Z,52.98
2018-04-12T08:01:41.463Z,53.02
2018-04-12T08:04:07.444Z,52.79
2018-04-12T08:06:33.368Z,52.36
2018-04-12T08:08:59.332Z,52.41
2018-04-12T08:11:25.264Z,52.38
2018-04-12T08:13:51.201Z,52.21
2018-04-12T08:16:17.204Z,52.25
2018-04-12T08:18:43.186Z,52.16
2018-04-12T08:21:09.160Z,52.05
2018-04-12T08:23:35.133Z,52.96
2018-04-12T08:26:01.085Z,52.80
2018-04-12T08:28:27.023Z,52.77
2018-04-12T08:30:53.013Z,52.38
2018-04-12T08:33:18.972Z,52.49
2018-04-12T08:35:44.898Z,52.04
2018-04-12T08:38:10.841Z,52.67
2018-04-12T08:40:36.788Z,51.93
2018-04-12T08:43:02.737Z,51.44
2018-04-12T08:45:28.698Z,51.59
2018-04-12T08:47:54.645Z,51.65
2018-04-12T08:50:20.585Z,51.49
2018-04-12T08:52:46.519Z,51.28
2018-04-12T08:55:12.518Z,51.13
2018-04-12T08:57:38.480Z,51.37
2018-04-12T09:00:04.430Z,51.35
2018-04-12T09:02:30.396Z,51.24
2018-04-12T09:04:56.356Z,51.02
2018-04-12T09:07:22.290Z,50.92
2018-04-12T09:09:49.272Z,50.69
2018-04-12T09:12:15.258Z,50.51
2018-04-12T09:14:41.177Z,50.63
2018-04-12T09:17:07.135Z,50.16
2018-04-12T09:19:33.207Z,49.78
2018-04-12T09:21:59.142Z,49.41
2018-04-12T09:24:25.091Z,49.35
2018-04-12T09:26:51.033Z,48.86
2018-04-12T09:29:16.993Z,48.59
2018-04-12T09:31:42.932Z,48.73
2018-04-12T09:34:08.869Z,48.61
2018-04-12T09:36:34.834Z,48.34
2018-04-12T09:39:00.872Z,48.27
2018-04-12T09:41:26.810Z,48.41
2018-04-12T09:43:52.771Z,48.34
2018-04-12T09:46:18.830Z,48.34
2018-04-12T09:48:44.706Z,48.03
2018-04-12T09:51:10.670Z,47.65
2018-04-12T09:53:38.653Z,47.58
2018-04-12T09:56:04.601Z,47.59
2018-04-12T09:58:30.534Z,46.80
2018-04-12T10:00:56.476Z,46.71
2018-04-12T10:03:22.402Z,46.75
2018-04-12T10:05:48.338Z,46.59
2018-04-12T10:08:14.367Z,46.47
2018-04-12T10:10:40.319Z,46.32
2018-04-12T10:13:06.257Z,46.25
2018-04-12T10:15:32.200Z,45.89
2018-04-12T10:17:58.148Z,45.72
2018-04-12T10:20:24.115Z,45.68
2018-04-12T10:22:50.093Z,45.31
2018-04-12T10:25:16.063Z,45.11
2018-04-12T10:27:43.089Z,44.93
2018-04-12T10:30:09.036Z,45.62
2018-04-12T10:32:34.980Z,45.21
2018-04-12T10:35:00.944Z,44.81
2018-04-12T10:37:26.944Z,44.49
2018-04-12T10:39:52.880Z,44.83
2018-04-12T10:42:18.932Z,44.54
2018-04-12T10:44:45.969Z,44.79
2018-04-12T10:47:11.917Z,45.05
2018-04-12T10:49:37.890Z,45.07
2018-04-12T10:52:03.856Z,44.22
2018-04-12T10:54:29.833Z,44.44
2018-04-12T10:56:55.776Z,44.64
2018-04-12T10:59:21.775Z,44.00
2018-04-12T11:01:47.703Z,44.22
2018-04-12T11:04:13.630Z,43.72
2018-04-12T11:06:39.616Z,43.83
2018-04-12T11:09:05.601Z,43.66
2018-04-12T11:11:31.552Z,43.59
2018-04-12T11:13:57.482Z,43.24
2018-04-12T11:16:23.404Z,43.45
2018-04-12T11:18:51.442Z,43.87
2018-04-12T11:21:17.410Z,43.74
2018-04-12T11:23:43.396Z,43.24
2018-04-12T11:26:09.326Z,43.45
2018-04-12T11:28:35.338Z,43.56
2018-04-12T11:31:01.246Z,43.64
2018-04-12T11:33:27.201Z,43.57
2018-04-12T11:35:53.150Z,42.99
2018-04-12T11:38:19.111Z,43.06
2018-04-12T11:40:45.057Z,42.82
2018-04-12T11:43:11.013Z,42.79
2018-04-12T11:45:36.966Z,43.02
2018-04-12T11:48:08.632Z,43.06
2018-04-12T11:50:34.615Z,42.78
2018-04-12T11:53:00.571Z,42.66
2018-04-12T11:55:26.533Z,42.59
2018-04-12T11:57:52.492Z,42.68
2018-04-12T12:00:18.456Z,42.29
2018-04-12T12:02:44.499Z,42.90
2018-04-12T12:05:10.434Z,42.45
2018-04-12T12:07:36.373Z,42.00
2018-04-12T12:10:02.326Z,41.55
2018-04-12T12:12:28.321Z,42.20
2018-04-12T12:14:54.271Z,42.39
2018-04-12T12:17:20.212Z,41.55
2018-04-12T12:19:46.162Z,41.69
2018-04-12T12:22:12.098Z,42.17
2018-04-12T12:24:38.388Z,41.91
2018-04-12T12:27:04.420Z,41.11
2018-04-12T12:29:30.376Z,41.63
2018-04-12T12:31:56.304Z,41.49
2018-04-12T12:34:22.248Z,41.86
2018-04-12T12:36:48.244Z,41.28
2018-04-12T12:39:14.190Z,41.01
2018-04-12T12:41:42.198Z,41.08
2018-04-12T12:44:08.166Z,41.24
2018-04-12T12:46:34.113Z,39.54
2018-04-12T12:49:00.122Z,40.20
2018-04-12T12:51:26.104Z,39.70
2018-04-12T12:53:52.034Z,39.68
2018-04-12T12:56:18.042Z,39.84
2018-04-12T12:58:43.996Z,39.45
2018-04-12T13:01:09.948Z,39.35
2018-04-12T13:03:35.925Z,39.90
2018-04-12T13:06:01.977Z,39.67
2018-04-12T13:08:27.931Z,39.58
2018-04-12T13:10:53.893Z,39.40
2018-04-12T13:18:25.256Z,39.78
2018-04-12T13:20:51.221Z,40.08
2018-04-12T13:23:17.153Z,39.50
2018-04-12T13:55:58.729Z,37.96
2018-04-12T13:58:24.672Z,37.20
2018-04-12T14:00:50.606Z,37.39
2018-04-12T14:05:48.937Z,37.20
2018-04-12T14:08:14.934Z,37.50
2018-04-12T14:10:40.956Z,39.18
2018-04-12T14:13:06.895Z,38.25
2018-04-12T14:15:32.864Z,38.12
2018-04-12T14:17:58.844Z,38.15
2018-04-12T14:20:24.761Z,37.71
2018-04-12T14:22:52.725Z,38.03
2018-04-12T14:25:18.647Z,37.69
2018-04-12T14:27:44.584Z,37.93
2018-04-12T14:30:10.521Z,37.92
2018-04-12T14:32:36.455Z,37.39
2018-04-12T14:35:02.417Z,36.74
2018-04-12T14:37:28.350Z,36.40
2018-04-12T14:39:54.324Z,37.02
2018-04-12T14:42:20.281Z,37.04
2018-04-12T14:44:46.229Z,36.89
2018-04-12T14:47:12.183Z,36.68
2018-04-12T14:54:44.568Z,37.10
2018-04-12T14:59:45.986Z,37.42
2018-04-12T15:02:11.916Z,37.74
2018-04-12T15:04:37.904Z,37.21
2018-04-12T15:12:11.118Z,36.58
2018-04-12T15:14:41.213Z,36.37
2018-04-12T15:17:07.237Z,36.58
2018-04-12T15:19:34.186Z,36.43
2018-04-12T15:22:04.428Z,36.74
2018-04-12T15:24:30.450Z,37.04
2018-04-12T15:26:58.390Z,37.07
2018-04-12T15:29:26.370Z,36.66
2018-04-12T15:31:53.561Z,36.61
2018-04-12T15:34:19.532Z,36.54
2018-04-12T15:36:46.480Z,36.74
2018-04-12T15:39:12.534Z,36.03
2018-04-12T15:41:40.617Z,36.06
2018-04-12T15:44:10.834Z,36.24
2018-04-12T15:46:37.970Z,36.23
2018-04-12T15:54:08.752Z,35.59
2018-04-12T15:56:34.761Z,36.81
2018-04-12T15:59:00.779Z,36.62
2018-04-12T16:01:26.702Z,37.47
2018-04-12T16:03:52.756Z,37.21
2018-04-12T16:06:18.743Z,37.58
2018-04-12T16:08:44.714Z,37.63
2018-04-12T16:11:10.650Z,36.20
2018-04-12T16:13:36.598Z,37.65
2018-04-12T16:16:02.550Z,37.26
2018-04-12T16:18:28.515Z,36.89
2018-04-12T16:26:01.591Z,38.16
2018-04-12T16:28:27.531Z,38.07
2018-04-12T16:30:59.204Z,38.73
2018-04-12T16:33:28.665Z,38.97
2018-04-12T16:35:58.377Z,39.13
2018-04-12T16:45:59.180Z,39.33
2018-04-12T16:48:25.191Z,39.34
2018-04-12T16:50:51.263Z,39.63
2018-04-12T16:55:50.444Z,39.57
2018-04-12T16:58:17.526Z,39.98
2018-04-12T17:00:44.574Z,39.77
2018-04-12T17:03:13.997Z,39.96
2018-04-12T17:05:41.017Z,40.30
2018-04-12T17:08:10.999Z,40.16
2018-04-12T17:10:38.090Z,40.05
2018-04-12T17:13:08.108Z,39.81
2018-04-12T17:15:34.099Z,39.92
2018-04-12T17:18:02.099Z,39.79
2018-04-12T17:28:05.995Z,39.78
2018-04-12T17:30:34.044Z,39.91
2018-04-12T17:33:04.566Z,40.22
2018-04-12T17:35:32.642Z,40.24
2018-04-12T17:37:58.618Z,40.09
2018-04-12T17:40:24.674Z,40.36
2018-04-12T17:42:50.745Z,40.28
2018-04-12T17:45:20.321Z,40.36
2018-04-12T17:47:50.657Z,40.57
2018-04-12T17:50:16.619Z,40.75
2018-04-12T17:52:43.672Z,40.46
2018-04-12T17:55:11.653Z,40.26
2018-04-12T17:57:37.702Z,39.92
2018-04-12T18:00:03.723Z,40.08
2018-04-12T18:02:29.762Z,39.96
2018-04-12T18:05:00.045Z,39.94
2018-04-12T18:07:25.986Z,39.63
2018-04-12T18:09:51.950Z,39.90
2018-04-12T18:12:17.933Z,39.56
2018-04-12T18:14:43.885Z,39.59
2018-04-12T18:17:09.819Z,39.88
2018-04-12T18:19:35.805Z,39.77
2018-04-12T18:22:02.871Z,39.58
2018-04-12T18:24:28.855Z,39.89
2018-04-12T18:26:54.821Z,39.91
2018-04-12T18:29:21.028Z,39.95
2018-04-12T18:31:46.979Z,39.94
2018-04-12T18:34:14.349Z,40.00
2018-04-12T18:36:40.442Z,40.06
2018-04-12T18:39:12.376Z,40.30
2018-04-12T18:41:38.329Z,40.29
2018-04-12T18:44:08.319Z,40.57
2018-04-12T18:46:34.286Z,40.54
2018-04-12T18:49:00.263Z,40.57
2018-04-12T18:51:26.221Z,40.59
2018-04-12T18:53:52.188Z,40.66
2018-04-12T18:56:18.124Z,40.71
2018-04-12T18:58:44.076Z,40.80
2018-04-12T19:01:15.830Z,40.75
2018-04-12T19:03:41.812Z,40.81
2018-04-12T19:06:07.746Z,41.02
2018-04-12T19:08:33.742Z,41.16
2018-04-12T19:10:59.828Z,41.46
2018-04-12T19:13:25.829Z,41.40
2018-04-12T19:15:51.807Z,41.36
2018-04-12T19:18:17.738Z,41.55
2018-04-12T19:20:43.692Z,41.59
2018-04-12T19:30:45.081Z,41.78
2018-04-12T19:33:11.015Z,41.93
2018-04-12T19:35:36.957Z,41.90
2018-04-12T19:38:02.923Z,41.89
2018-04-12T19:40:29.085Z,41.87
2018-04-12T19:42:55.076Z,41.88
2018-04-12T19:45:21.058Z,41.90
2018-04-12T19:47:47.007Z,41.93
2018-04-12T19:50:13.014Z,42.06
2018-04-12T20:00:15.737Z,42.17
2018-04-12T20:02:41.703Z,42.24
2018-04-12T20:05:07.765Z,42.37
2018-04-12T20:07:33.804Z,42.43
2018-04-12T20:09:59.746Z,42.46
2018-04-12T20:12:25.693Z,42.44
2018-04-12T20:14:51.647Z,42.64
2018-04-12T20:17:17.649Z,42.67
2018-04-12T20:19:43.593Z,42.73
2018-04-12T20:22:09.578Z,42.65
2018-04-12T20:24:35.572Z,42.71
2018-04-12T20:27:01.512Z,42.75
2018-04-12T20:29:27.489Z,42.83
2018-04-12T20:31:53.514Z,42.89
2018-04-12T20:34:19.486Z,42.91
2018-04-12T20:36:45.462Z,43.01
2018-04-12T20:39:11.435Z,42.87
2018-04-12T20:41:37.367Z,43.01
2018-04-12T20:44:03.306Z,43.01
2018-04-12T20:46:29.275Z,43.02
2018-04-12T20:48:55.255Z,43.03
2018-04-12T20:51:21.218Z,43.05
2018-04-12T20:53:47.224Z,42.95
2018-04-12T20:56:13.161Z,42.97
2018-04-12T20:58:39.131Z,42.97
2018-04-12T21:01:05.062Z,42.99
2018-04-12T21:03:31.006Z,42.84
2018-04-12T21:05:56.933Z,42.94
2018-04-12T21:08:22.872Z,42.89
2018-04-12T21:10:48.816Z,42.93
2018-04-12T21:13:15.160Z,42.93
2018-04-12T21:15:41.147Z,43.02
2018-04-12T21:18:07.127Z,42.99
2018-04-12T21:20:33.125Z,42.90
2018-04-12T21:22:59.078Z,43.07
2018-04-12T21:25:25.210Z,43.00
2018-04-12T21:27:51.164Z,43.12
2018-04-12T21:30:17.123Z,43.17
2018-04-12T21:32:43.106Z,43.15
2018-04-12T21:35:09.085Z,43.26
2018-04-12T21:37:35.019Z,43.22
2018-04-12T21:40:00.997Z,43.32
2018-04-12T21:42:26.973Z,43.25
2018-04-12T21:44:52.985Z,43.37
2018-04-12T21:47:18.955Z,43.42
2018-04-12T21:49:44.954Z,43.47
2018-04-12T21:52:10.901Z,43.49
2018-04-12T21:54:36.845Z,43.56
2018-04-12T21:57:02.805Z,43.66
2018-04-12T21:59:28.745Z,43.63
2018-04-12T22:01:54.683Z,43.61
2018-04-12T22:04:20.652Z,43.70
2018-04-12T22:06:46.609Z,43.65
2018-04-12T22:09:12.526Z,43.62
2018-04-12T22:11:38.447Z,43.61
2018-04-12T22:14:04.373Z,43.67
2018-04-12T22:16:30.335Z,43.66
2018-04-12T22:18:56.289Z,43.61
2018-04-12T22:21:22.245Z,43.61
2018-04-12T22:23:48.169Z,43.57
2018-04-12T22:26:14.121Z,43.57
2018-04-12T22:28:40.057Z,43.54
2018-04-12T22:31:06.022Z,43.55
2018-04-12T22:33:32.313Z,43.66
2018-04-12T22:35:58.263Z,43.68
2018-04-12T22:38:24.208Z,43.67
2018-04-12T22:40:50.188Z,43.66
2018-04-12T22:43:16.136Z,43.61
2018-04-12T22:45:42.101Z,43.59
2018-04-12T22:48:08.045Z,43.48
2018-04-12T22:50:34.014Z,43.33
2018-04-12T22:52:59.942Z,43.35
2018-04-12T22:55:25.879Z,43.34
2018-04-12T22:57:51.826Z,43.25
2018-04-12T23:00:17.768Z,43.15
2018-04-12T23:02:43.718Z,43.15
2018-04-12T23:05:09.644Z,43.16
2018-04-12T23:07:35.601Z,43.12
2018-04-12T23:10:01.547Z,43.30
2018-04-12T23:12:27.546Z,43.33
2018-04-12T23:14:53.493Z,43.24
2018-04-12T23:17:19.436Z,43.29
2018-04-12T23:19:45.422Z,43.30
2018-04-12T23:22:11.374Z,43.33
2018-04-12T23:24:37.311Z,43.45
2018-04-12T23:27:03.253Z,43.35
2018-04-12T23:29:29.172Z,43.32
2018-04-12T23:31:55.158Z,43.30
2018-04-12T23:34:21.139Z,43.19
2018-04-12T23:36:47.094Z,43.34
2018-04-12T23:39:13.053Z,43.32
2018-04-12T23:41:39.010Z,43.42
2018-04-12T23:44:04.968Z,43.36
2018-04-12T23:46:30.892Z,43.43
2018-04-12T23:48:56.860Z,43.45
2018-04-12T23:51:22.817Z,43.55
2018-04-12T23:53:48.772Z,43.52
2018-04-12T23:56:14.720Z,43.51
2018-04-12T23:58:40.643Z,43.41
